createdAt,value
2019-01-11T00:02:20.458Z,101657.70
2019-01-11T00:05:28.174Z,101658.97
2019-01-11T00:08:35.402Z,101653.48
2019-01-11T00:11:41.112Z,101650.50
2019-01-11T00:14:48.356Z,101649.28
2019-01-11T00:17:55.615Z,101637.45
2019-01-11T00:21:02.926Z,101634.49
2019-01-11T00:24:08.600Z,101638.29
2019-01-11T00:27:16.041Z,101633.22
2019-01-11T00:30:23.269Z,101631.95
2019-01-11T00:33:29.978Z,101636.18
2019-01-11T00:36:37.580Z,101634.05
2019-01-11T00:39:45.009Z,101626.45
2019-01-11T00:42:52.305Z,101634.48
2019-01-11T00:45:59.869Z,101626.03
2019-01-11T00:49:16.368Z,101620.55
2019-01-11T00:52:23.491Z,101617.14
2019-01-11T00:55:30.746Z,101617.16
2019-01-11T00:58:37.869Z,101609.15
2019-01-11T01:01:45.557Z,101605.77
2019-01-11T01:05:06.898Z,101589.70
2019-01-11T01:08:14.071Z,101590.95
2019-01-11T01:11:21.378Z,101587.17
2019-01-11T01:14:28.672Z,101579.98
2019-01-11T01:17:35.975Z,101570.27
2019-01-11T01:20:43.429Z,101564.34
2019-01-11T01:24:00.131Z,101555.47
2019-01-11T01:27:07.327Z,101566.48
2019-01-11T01:30:16.646Z,101559.29
2019-01-11T01:33:23.842Z,101560.13
2019-01-11T01:36:31.052Z,101555.89
2019-01-11T01:39:38.272Z,101554.19
2019-01-11T01:42:45.647Z,101547.86
2019-01-11T01:45:52.786Z,101546.14
2019-01-11T01:49:00.026Z,101540.67
2019-01-11T01:52:07.270Z,101544.06
2019-01-11T01:55:14.991Z,101536.03
2019-01-11T01:58:22.112Z,101544.47
2019-01-11T02:01:29.501Z,101537.70
2019-01-11T02:04:36.700Z,101537.70
2019-01-11T02:07:43.907Z,101538.98
2019-01-11T02:10:51.203Z,101529.23
2019-01-11T02:13:58.436Z,101522.47
2019-01-11T02:17:05.991Z,101516.98
2019-01-11T02:20:22.486Z,101505.11
2019-01-11T02:23:39.157Z,101527.08
2019-01-11T02:26:46.361Z,101529.64
2019-01-11T02:29:53.549Z,101530.06
2019-01-11T02:33:00.893Z,101516.52
2019-01-11T02:36:17.593Z,101513.12
2019-01-11T02:39:24.817Z,101515.23
2019-01-11T02:42:31.203Z,101509.74
2019-01-11T02:45:38.388Z,101493.28
2019-01-11T02:48:47.861Z,101494.09
2019-01-11T02:51:55.017Z,101496.22
2019-01-11T02:55:02.351Z,101500.45
2019-01-11T02:58:19.112Z,101499.58
2019-01-11T03:01:26.326Z,101501.67
2019-01-11T03:04:33.636Z,101490.66
2019-01-11T03:07:41.225Z,101479.23
2019-01-11T03:10:57.525Z,101483.44
2019-01-11T03:14:04.799Z,101483.05
2019-01-11T03:17:21.734Z,101480.47
2019-01-11T03:20:38.177Z,101475.41
2019-01-11T03:23:45.295Z,101474.99
2019-01-11T03:26:52.430Z,101475.02
2019-01-11T03:29:59.652Z,101462.74
2019-01-11T03:33:07.770Z,101455.08
2019-01-11T03:36:14.982Z,101453.40
2019-01-11T03:39:22.106Z,101462.68
2019-01-11T03:42:29.421Z,101446.57
2019-01-11T03:45:36.634Z,101433.48
2019-01-11T03:48:43.758Z,101428.39
2019-01-11T03:51:51.064Z,101422.11
2019-01-11T03:54:58.256Z,101422.89
2019-01-11T03:58:05.738Z,101421.67
2019-01-11T04:01:13.133Z,101413.97
2019-01-11T04:04:20.643Z,101402.16
2019-01-11T04:07:27.894Z,101405.97
2019-01-11T04:10:35.028Z,101396.28
2019-01-11T04:13:42.242Z,101409.36
2019-01-11T04:16:59.369Z,101397.88
2019-01-11T04:20:07.634Z,101390.34
2019-01-11T04:23:14.840Z,101393.63
2019-01-11T04:26:22.184Z,101391.08
2019-01-11T04:29:29.304Z,101394.07
2019-01-11T04:32:36.706Z,101387.68
2019-01-11T04:35:43.976Z,101383.47
2019-01-11T04:38:51.406Z,101375.77
2019-01-11T04:42:08.153Z,101365.54
2019-01-11T04:45:14.755Z,101362.64
2019-01-11T04:48:22.056Z,101361.39
2019-01-11T04:51:29.275Z,101352.09
2019-01-11T04:54:36.511Z,101356.30
2019-01-11T04:57:44.296Z,101355.89
2019-01-11T05:01:01.324Z,101349.91
2019-01-11T05:04:17.702Z,101353.25
2019-01-11T05:07:34.492Z,101359.58
2019-01-11T05:10:41.621Z,101363.28
2019-01-11T05:13:58.890Z,101353.64
2019-01-11T05:17:06.279Z,101353.62
2019-01-11T05:20:16.837Z,101356.13
2019-01-11T05:23:24.348Z,101351.07
2019-01-11T05:26:31.484Z,101352.61
2019-01-11T05:29:38.721Z,101354.74
2019-01-11T05:32:46.031Z,101352.22
2019-01-11T05:35:53.547Z,101346.73
2019-01-11T05:39:00.774Z,101333.56
2019-01-11T05:42:17.483Z,101333.81
2019-01-11T05:45:24.606Z,101335.11
2019-01-11T05:48:31.804Z,101329.08
2019-01-11T05:51:38.934Z,101326.13
2019-01-11T05:54:46.174Z,101321.30
2019-01-11T05:58:16.170Z,101318.28
2019-01-11T06:01:33.829Z,101307.71
2019-01-11T06:04:48.767Z,101300.91
2019-01-11T06:08:00.433Z,101302.05
2019-01-11T06:11:07.630Z,101298.34
2019-01-11T06:14:14.967Z,101289.83
2019-01-11T06:17:22.177Z,101288.02
2019-01-11T06:20:30.352Z,101277.00
2019-01-11T06:23:37.972Z,101281.59
2019-01-11T06:26:45.171Z,101275.33
2019-01-11T06:29:52.312Z,101272.36
2019-01-11T06:32:59.605Z,101277.83
2019-01-11T06:36:06.999Z,101273.89
2019-01-11T06:39:14.176Z,101276.43
2019-01-11T06:42:27.271Z,101264.94
2019-01-11T06:45:34.577Z,101264.99
2019-01-11T06:48:42.492Z,101264.05
2019-01-11T06:51:49.696Z,101263.72
2019-01-11T06:54:56.933Z,101257.21
2019-01-11T06:58:04.134Z,101261.03
2019-01-11T07:01:11.267Z,101256.22
2019-01-11T07:04:18.413Z,101252.70
2019-01-11T07:07:25.938Z,101245.45
2019-01-11T07:10:33.140Z,101249.59
2019-01-11T07:13:49.851Z,101250.92
2019-01-11T07:17:07.013Z,101249.94
2019-01-11T07:20:23.341Z,101244.39
2019-01-11T07:23:30.467Z,101245.23
2019-01-11T07:26:38.606Z,101244.84
2019-01-11T07:29:45.218Z,101248.61
2019-01-11T07:33:03.503Z,101248.98
2019-01-11T07:36:36.694Z,101241.33
2019-01-11T07:39:53.226Z,101241.98
2019-01-11T07:43:00.346Z,101239.67
2019-01-11T07:46:07.560Z,101249.68
2019-01-11T07:49:14.686Z,101241.33
2019-01-11T07:52:21.911Z,101237.88
2019-01-11T07:55:29.119Z,101240.91
2019-01-11T07:58:36.442Z,101235.00
2019-01-11T08:01:43.747Z,101228.27
2019-01-11T08:04:49.354Z,101216.41
2019-01-11T08:07:56.493Z,101220.22
2019-01-11T08:11:03.700Z,101220.41
2019-01-11T08:14:11.685Z,101224.20
2019-01-11T08:17:19.004Z,101217.64
2019-01-11T08:20:26.217Z,101212.55
2019-01-11T08:23:33.432Z,101205.67
2019-01-11T08:26:40.646Z,101206.41
2019-01-11T08:29:47.284Z,101205.08
2019-01-11T08:33:03.750Z,101194.84
2019-01-11T08:36:11.030Z,101196.86
2019-01-11T08:39:32.348Z,101194.03
2019-01-11T08:42:45.950Z,101196.03
2019-01-11T08:45:53.154Z,101198.72
2019-01-11T08:49:00.408Z,101191.88
2019-01-11T08:52:07.650Z,101192.61
2019-01-11T08:55:24.449Z,101194.42
2019-01-11T08:58:42.927Z,101191.52
2019-01-11T09:01:50.085Z,101195.95
2019-01-11T09:05:07.813Z,101180.93
2019-01-11T09:08:15.042Z,101187.98
2019-01-11T09:11:22.340Z,101178.70
2019-01-11T09:14:48.275Z,101179.89
2019-01-11T09:18:05.423Z,101184.99
2019-01-11T09:21:12.629Z,101180.05
2019-01-11T09:24:19.936Z,101179.37
2019-01-11T09:27:27.245Z,101179.85
2019-01-11T09:30:34.551Z,101187.55
2019-01-11T09:33:41.688Z,101179.36
2019-01-11T09:36:49.139Z,101183.32
2019-01-11T09:39:56.275Z,101184.47
2019-01-11T09:43:03.656Z,101181.04
2019-01-11T09:46:20.273Z,101188.73
2019-01-11T09:49:29.267Z,101197.46
2019-01-11T09:52:45.841Z,101171.91
2019-01-11T09:55:53.147Z,101171.98
2019-01-11T09:59:09.849Z,101177.13
2019-01-11T10:02:25.275Z,101178.67
2019-01-11T10:05:43.411Z,101162.13
2019-01-11T10:08:50.531Z,101165.03
2019-01-11T10:11:57.759Z,101169.94
2019-01-11T10:15:06.108Z,101160.17
2019-01-11T10:18:22.665Z,101163.46
2019-01-11T10:21:29.872Z,101157.66
2019-01-11T10:24:37.191Z,101159.63
2019-01-11T10:27:44.315Z,101160.34
2019-01-11T10:30:51.547Z,101160.43
2019-01-11T10:34:14.217Z,101148.72
2019-01-11T10:37:21.347Z,101157.73
2019-01-11T10:40:28.727Z,101148.90
2019-01-11T10:43:45.479Z,101146.03
2019-01-11T10:47:02.142Z,101141.55
2019-01-11T10:50:19.112Z,101140.48
2019-01-11T10:53:35.745Z,101141.58
2019-01-11T10:56:41.549Z,101145.02
2019-01-11T10:59:58.265Z,101146.64
2019-01-11T11:03:20.832Z,101133.04
2019-01-11T11:06:28.066Z,101138.37
2019-01-11T11:09:35.354Z,101140.34
2019-01-11T11:12:52.066Z,101137.60
2019-01-11T11:15:59.936Z,101132.05
2019-01-11T11:19:07.269Z,101131.66
2019-01-11T11:22:15.580Z,101126.86
2019-01-11T11:25:33.659Z,101109.34
2019-01-11T11:28:50.313Z,101109.03
2019-01-11T11:31:57.530Z,101112.81
2019-01-11T11:35:05.317Z,101106.67
2019-01-11T11:38:11.955Z,101092.43
2019-01-11T11:41:19.079Z,101082.96
2019-01-11T11:44:26.456Z,101083.69
2019-01-11T11:47:43.058Z,101068.18
2019-01-11T11:50:50.454Z,101063.70
2019-01-11T11:54:07.095Z,101059.05
2019-01-11T11:57:14.331Z,101059.00
2019-01-11T12:00:37.228Z,101057.62
2019-01-11T12:03:54.412Z,101051.28
2019-01-11T12:07:01.614Z,101054.56
2019-01-11T12:10:11.214Z,101053.25
2019-01-11T12:13:18.424Z,101032.23
2019-01-11T12:16:25.548Z,101032.77
2019-01-11T12:19:32.853Z,101038.37
2019-01-11T12:22:40.275Z,101027.41
2019-01-11T12:25:57.304Z,101019.07
2019-01-11T12:29:13.689Z,101007.08
2019-01-11T12:32:20.814Z,101011.59
2019-01-11T12:35:28.014Z,101011.58
2019-01-11T12:38:35.307Z,101007.75
2019-01-11T12:41:42.447Z,101000.08
2019-01-11T12:44:50.489Z,100986.84
2019-01-11T12:47:57.615Z,100995.02
2019-01-11T12:51:04.923Z,100972.13
2019-01-11T12:54:12.218Z,100983.58
2019-01-11T12:57:19.521Z,100983.14
2019-01-11T13:00:26.738Z,100972.91
2019-01-11T13:03:34.168Z,100965.58
2019-01-11T13:06:41.308Z,100953.59
2019-01-11T13:09:48.430Z,100941.72
2019-01-11T13:12:55.455Z,100939.16
2019-01-11T13:16:02.767Z,100948.65
2019-01-11T13:19:10.315Z,100947.27
2019-01-11T13:22:17.573Z,100957.15
2019-01-11T13:25:24.707Z,100948.59
2019-01-11T13:28:31.943Z,100949.80
2019-01-11T13:31:39.251Z,100946.42
2019-01-11T13:34:46.452Z,100942.09
2019-01-11T13:37:53.757Z,100938.26
2019-01-11T13:41:12.865Z,100946.27
2019-01-11T13:44:20.079Z,100945.48
2019-01-11T13:47:27.278Z,100945.03
2019-01-11T13:50:41.802Z,100957.70
2019-01-11T13:53:49.023Z,100966.04
2019-01-11T13:56:56.233Z,100957.98
2019-01-11T14:00:03.930Z,100951.59
2019-01-11T14:03:11.333Z,100951.70
2019-01-11T14:06:28.014Z,100950.81
2019-01-11T14:09:35.314Z,100948.97
2019-01-11T14:12:42.443Z,100962.67
2019-01-11T14:15:49.634Z,100951.58
2019-01-11T14:18:56.774Z,100960.52
2019-01-11T14:22:04.143Z,100957.27
2019-01-11T14:25:20.826Z,100969.16
2019-01-11T14:28:28.121Z,100965.94
2019-01-11T14:31:35.302Z,100973.25
2019-01-11T14:34:42.577Z,100962.11
2019-01-11T14:37:59.109Z,100963.44
2019-01-11T14:41:06.401Z,100974.20
2019-01-11T14:44:23.308Z,100980.91
2019-01-11T14:47:30.525Z,100984.84
2019-01-11T14:50:37.716Z,100993.35
2019-01-11T14:53:44.937Z,100995.91
2019-01-11T14:56:52.090Z,101002.38
2019-01-11T15:00:14.991Z,100991.44
2019-01-11T15:03:22.209Z,100993.15
2019-01-11T15:06:29.425Z,101001.36
2019-01-11T15:09:36.742Z,100991.73
2019-01-11T15:12:44.575Z,101000.97
2019-01-11T15:16:00.797Z,101001.64
2019-01-11T15:19:13.871Z,101004.59
2019-01-11T15:22:26.680Z,101002.69
2019-01-11T15:25:42.912Z,101008.91
2019-01-11T15:28:50.139Z,101017.80
2019-01-11T15:31:57.249Z,101019.91
2019-01-11T15:35:05.393Z,101020.45
2019-01-11T15:38:12.554Z,101011.52
2019-01-11T15:41:19.849Z,101007.69
2019-01-11T15:44:27.178Z,101003.37
2019-01-11T15:47:34.296Z,101011.21
2019-01-11T15:50:56.010Z,100993.84
2019-01-11T15:54:04.511Z,101004.48
2019-01-11T15:57:11.706Z,100999.00
2019-01-11T16:00:21.433Z,100999.58
2019-01-11T16:03:38.893Z,100991.28
2019-01-11T16:06:46.082Z,100990.20
2019-01-11T16:10:05.621Z,100997.72
2019-01-11T16:13:26.978Z,101001.64
2019-01-11T16:16:47.455Z,100992.75
2019-01-11T16:19:54.586Z,101004.23
2019-01-11T16:23:01.711Z,100996.00
2019-01-11T16:26:08.608Z,100996.05
2019-01-11T16:29:16.146Z,100996.63
2019-01-11T16:32:23.274Z,101006.74
2019-01-11T16:35:30.571Z,100995.75
2019-01-11T16:38:36.695Z,101007.59
2019-01-11T16:41:59.257Z,100989.67
2019-01-11T16:45:16.195Z,101000.67
2019-01-11T16:48:22.670Z,101003.41
2019-01-11T16:51:29.958Z,101001.73
2019-01-11T16:54:37.278Z,101001.82
2019-01-11T16:57:44.406Z,101010.81
2019-01-11T17:00:51.610Z,101014.98
2019-01-11T17:03:58.723Z,101021.27
2019-01-11T17:07:06.202Z,101018.16
2019-01-11T17:10:13.652Z,101018.55
2019-01-11T17:13:30.715Z,101013.45
2019-01-11T17:16:47.533Z,101018.46
2019-01-11T17:20:06.643Z,101009.71
2019-01-11T17:23:13.848Z,101011.78
2019-01-11T17:26:21.044Z,101017.84
2019-01-11T17:29:28.252Z,101023.00
2019-01-11T17:32:35.461Z,101022.47
2019-01-11T17:35:42.688Z,101022.47
2019-01-11T17:38:49.820Z,101014.77
2019-01-11T17:41:57.124Z,101014.68
2019-01-11T17:45:03.670Z,101006.11
2019-01-11T17:48:20.160Z,101011.13
2019-01-11T17:51:36.836Z,101015.00
2019-01-11T17:54:43.953Z,101012.89
2019-01-11T17:57:51.070Z,101015.13
2019-01-11T18:00:58.295Z,101015.58
2019-01-11T18:04:05.587Z,101021.13
2019-01-11T18:07:22.316Z,101016.86
2019-01-11T18:10:29.526Z,101016.23
2019-01-11T18:13:36.659Z,101017.52
2019-01-11T18:16:43.950Z,101032.51
2019-01-11T18:19:51.176Z,101025.12
2019-01-11T18:22:58.452Z,101029.34
2019-01-11T18:26:15.148Z,101022.17
2019-01-11T18:29:22.382Z,101035.09
2019-01-11T18:32:39.025Z,101035.08
2019-01-11T18:35:46.308Z,101041.42
2019-01-11T18:38:53.434Z,101041.19
2019-01-11T18:42:00.610Z,101035.30
2019-01-11T18:45:17.755Z,101046.69
2019-01-11T18:48:34.429Z,101048.58
2019-01-11T18:51:41.622Z,101054.55
2019-01-11T18:54:48.727Z,101053.71
2019-01-11T18:57:55.841Z,101062.31
2019-01-11T19:01:03.033Z,101061.47
2019-01-11T19:04:10.231Z,101061.99
2019-01-11T19:07:17.376Z,101059.56
2019-01-11T19:10:24.676Z,101068.00
2019-01-11T19:13:31.866Z,101068.71
2019-01-11T19:16:39.160Z,101064.92
2019-01-11T19:19:46.456Z,101075.41
2019-01-11T19:23:03.648Z,101071.63
2019-01-11T19:26:19.901Z,101075.48
2019-01-11T19:29:27.060Z,101074.83
2019-01-11T19:32:34.806Z,101082.07
2019-01-11T19:35:51.053Z,101087.78
2019-01-11T19:38:58.153Z,101095.53
2019-01-11T19:42:05.550Z,101088.22
2019-01-11T19:45:22.319Z,101093.17
2019-01-11T19:48:29.446Z,101088.22
2019-01-11T19:51:46.792Z,101089.31
2019-01-11T19:55:03.545Z,101084.47
2019-01-11T19:58:10.794Z,101082.14
2019-01-11T20:01:18.024Z,101080.77
2019-01-11T20:04:34.543Z,101087.20
2019-01-11T20:07:41.982Z,101085.96
2019-01-11T20:10:48.997Z,101090.39
2019-01-11T20:13:56.201Z,101103.92
2019-01-11T20:17:03.420Z,101103.62
2019-01-11T20:20:12.123Z,101107.44
2019-01-11T20:23:19.316Z,101109.78
2019-01-11T20:26:26.526Z,101110.36
2019-01-11T20:29:36.998Z,101112.94
2019-01-11T20:32:54.124Z,101113.27
2019-01-11T20:36:10.483Z,101107.91
2019-01-11T20:39:15.948Z,101117.79
2019-01-11T20:42:23.077Z,101127.03
2019-01-11T20:45:30.370Z,101120.70
2019-01-11T20:48:38.064Z,101123.75
2019-01-11T20:51:54.434Z,101130.48
2019-01-11T20:55:01.634Z,101132.13
2019-01-11T20:58:09.657Z,101128.84
2019-01-11T21:01:17.443Z,101135.14
2019-01-11T21:04:24.638Z,101133.53
2019-01-11T21:07:31.960Z,101139.42
2019-01-11T21:10:39.251Z,101142.50
2019-01-11T21:13:57.290Z,101130.48
2019-01-11T21:17:04.709Z,101140.36
2019-01-11T21:20:13.761Z,101139.98
2019-01-11T21:23:30.571Z,101140.48
2019-01-11T21:26:47.318Z,101143.77
2019-01-11T21:30:05.316Z,101138.28
2019-01-11T21:33:12.617Z,101143.30
2019-01-11T21:36:20.093Z,101140.42
2019-01-11T21:39:42.513Z,101132.91
2019-01-11T21:42:50.731Z,101138.80
2019-01-11T21:46:03.310Z,101134.18
2019-01-11T21:49:15.532Z,101131.73
2019-01-11T21:52:21.052Z,101133.38
2019-01-11T21:55:37.902Z,101132.04
2019-01-11T21:58:45.289Z,101134.77
2019-01-11T22:02:01.744Z,101127.11
2019-01-11T22:05:09.184Z,101133.00
2019-01-11T22:08:16.542Z,101127.98
2019-01-11T22:11:32.969Z,101129.53
2019-01-11T22:14:40.167Z,101127.08
2019-01-11T22:17:47.362Z,101130.17
2019-01-11T22:20:54.485Z,101133.78
2019-01-11T22:24:03.192Z,101132.48
2019-01-11T22:27:26.332Z,101126.64
2019-01-11T22:30:43.376Z,101127.36
2019-01-11T22:33:50.662Z,101135.11
2019-01-11T22:36:57.858Z,101135.42
2019-01-11T22:40:07.794Z,101140.92
2019-01-11T22:43:24.416Z,101130.98
2019-01-11T22:46:55.206Z,101136.84
2019-01-11T22:50:03.528Z,101133.19
2019-01-11T22:53:10.586Z,101136.41
2019-01-11T22:56:17.874Z,101134.77
2019-01-11T22:59:25.012Z,101130.48
2019-01-11T23:02:48.002Z,101131.69
2019-01-11T23:06:00.204Z,101138.52
2019-01-11T23:09:11.703Z,101131.72
2019-01-11T23:12:38.849Z,101134.87
2019-01-11T23:15:50.026Z,101133.37
2019-01-11T23:18:59.480Z,101138.59
2019-01-11T23:22:06.699Z,101132.53
2019-01-11T23:25:13.158Z,101125.20
2019-01-11T23:28:19.736Z,101129.14
2019-01-11T23:31:27.050Z,101124.79
2019-01-11T23:34:34.972Z,101125.23
2019-01-11T23:37:51.813Z,101134.87
2019-01-11T23:41:14.200Z,101132.96
2019-01-11T23:44:21.498Z,101128.41
2019-01-11T23:47:39.242Z,101128.98
2019-01-11T23:50:56.292Z,101131.66
2019-01-11T23:54:04.159Z,101145.28
2019-01-11T23:57:12.954Z,101136.61
